FW3791 Weather Reports


Display with metric or nautical units.
time (UTC)temp
F
wind
direction
speed
MPH
gust
MPH
rain 1hr
in
rain 24hr
in
rain mn
in
humidity
%
barometer
mb
20221005124316 56 80 0.0 0.0 0.00 0.00 0.00 75 1014.8
20221005124026 56 80 0.0 2.0 0.00 0.00 0.00 75 1014.8
20221005123235 56 80 1.0 4.0 0.00 0.00 0.00 75 1014.6
20221005122724 56 80 1.0 4.0 0.00 0.00 0.00 74 1014.6
20221005122223 56 80 1.0 4.0 0.00 0.00 0.00 74 1014.5
20221005121708 56 80 0.0 2.0 0.00 0.00 0.00 74 1014.6
20221005121132 57 80 0.0 0.0 0.00 0.00 0.00 74 1014.5
20221005120854 57 80 0.0 0.0 0.00 0.00 0.00 73 1014.5
20221005120112 57 80 0.0 0.0 0.00 0.00 0.00 72 1014.5
20221005115554 57 80 0.0 0.0 0.00 0.00 0.00 72 1014.4
20221005115027 57 80 0.0 2.0 0.00 0.00 0.00 72 1014.4
20221005114531 57 212 0.0 2.0 0.00 0.00 0.00 71 1014.4
20221005114527 57 80 0.0 2.0 0.00 0.00 0.00 71 1014.3
20221005113757 57 80 0.0 0.0 0.00 0.00 0.00 71 1014.4
20221005113019 57 80 0.0 0.0 0.00 0.00 0.00 71 1014.4
20221005112751 57 80 0.0 0.0 0.00 0.00 0.00 71 1014.3
20221005112013 57 80 0.0 1.0 0.00 0.00 0.00 71 1014.3
20221005111508 57 80 0.0 1.0 0.00 0.00 0.00 71 1014.2
20221005111006 57 80 0.0 1.0 0.00 0.00 0.00 71 1014.1
20221005110503 57 80 0.0 1.0 0.00 0.00 0.00 71 1014.2
20221005110235 57 212 0.0 0.0 0.00 0.00 0.00 70 1014.1
20221005105502 57 80 0.0 2.0 0.00 0.00 0.00 70 1014.0
20221005104956 58 212 0.0 2.0 0.00 0.00 0.00 70 1014.0
20221005104501 58 80 0.0 1.0 0.00 0.00 0.00 69 1013.9
20221005104453 58 303 0.0 1.0 0.00 0.00 0.00 69 1013.9
20221005103442 58 80 0.0 2.0 0.00 0.00 0.00 69 1013.9
20221005102934 58 80 1.0 2.0 0.00 0.00 0.00 69 1013.9
20221005102434 58 80 0.0 2.0 0.00 0.00 0.00 69 1013.9
20221005101932 58 80 0.0 0.0 0.00 0.00 0.00 68 1013.9
20221005101652 58 80 0.0 0.0 0.00 0.00 0.00 68 1013.9
20221005100922 58 80 0.0 0.0 0.00 0.00 0.00 68 1013.8
20221005100409 58 80 0.0 1.0 0.00 0.00 0.00 68 1013.8
20221004201417 88 135 4.0 11.0 0.00 0.00 0.00 28 1014.7
20221004201156 87 100 6.0 13.0 0.00 0.00 0.00 28 1014.8
20221004195719 88 129 4.0 11.0 0.00 0.00 0.00 28 1014.8
20221004193840 88 80 5.0 10.0 0.00 0.00 0.00 27 1015.0
20221004193338 87 125 6.0 12.0 0.00 0.00 0.00 28 1015.2
20221004193118 87 149 6.0 12.0 0.00 0.00 0.00 28 1015.3
20221004192335 87 114 5.0 12.0 0.00 0.00 0.00 29 1015.3
20221004192101 87 116 4.0 11.0 0.00 0.00 0.00 28 1015.4
20221004191320 87 135 3.0 10.0 0.00 0.00 0.00 29 1015.5
20221004190809 87 91 4.0 12.0 0.00 0.00 0.00 28 1015.5
20221004190313 87 80 5.0 13.0 0.00 0.00 0.00 29 1015.7
20221004185807 88 132 7.0 13.0 0.00 0.00 0.00 29 1015.8
20221004185254 88 131 7.0 17.0 0.00 0.00 0.00 29 1016.0
20221004184752 88 136 7.0 18.0 0.00 0.00 0.00 30 1016.0
20221004184250 87 150 7.0 18.0 0.00 0.00 0.00 30 1016.1
20221004183751 87 97 5.0 11.0 0.00 0.00 0.00 29 1016.2
20221004183524 87 127 5.0 11.0 0.00 0.00 0.00 30 1016.3
20221004182747 87 135 5.0 11.0 0.00 0.00 0.00 30 1016.3
20221004182248 87 149 6.0 11.0 0.00 0.00 0.00 30 1016.5
20221004182036 87 124 6.0 13.0 0.00 0.00 0.00 29 1016.6
20221004181014 87 127 7.0 15.0 0.00 0.00 0.00 29 1016.7
20221004180239 86 181 6.0 14.0 0.00 0.00 0.00 29 1016.7
20221004175739 87 161 7.0 15.0 0.00 0.00 0.00 29 1016.8
20221004175236 86 135 8.0 15.0 0.00 0.00 0.00 30 1016.8
20221004174734 87 116 7.0 15.0 0.00 0.00 0.00 30 1017.1
20221004174229 86 150 7.0 17.0 0.00 0.00 0.00 30 1017.0
20221004173729 86 149 8.0 17.0 0.00 0.00 0.00 29 1017.1
20221004173227 86 181 6.0 13.0 0.00 0.00 0.00 30 1017.1
20221004162356 79 85 1.0 4.0 0.00 0.00 0.00 39 1017.4
20221004161612 78 32 1.0 4.0 0.00 0.00 0.00 38 1017.3
20221004161041 77 80 0.0 3.0 0.00 0.00 0.00 40 1017.4
20221004160540 77 80 1.0 5.0 0.00 0.00 0.00 41 1017.2
20221004160315 76 80 3.0 5.0 0.00 0.00 0.00 40 1017.3
20221004155541 76 80 2.0 5.0 0.00 0.00 0.00 43 1017.2
20221004155038 75 4 2.0 5.0 0.00 0.00 0.00 44 1017.1
20221004154533 75 80 2.0 5.0 0.00 0.00 0.00 45 1017.2
20221004154025 73 80 1.0 4.0 0.00 0.00 0.00 46 1017.1
20221004153522 71 80 1.0 3.0 0.00 0.00 0.00 49 1016.8
20221004153020 70 80 0.0 2.0 0.00 0.00 0.00 49 1016.8
20221004152501 69 80 0.0 3.0 0.00 0.00 0.00 52 1016.7
20221004151957 69 80 0.0 3.0 0.00 0.00 0.00 51 1016.7
20221004151442 68 80 0.0 3.0 0.00 0.00 0.00 53 1016.6
20221004150943 68 80 0.0 3.0 0.00 0.00 0.00 55 1016.5
20221004150431 67 80 0.0 3.0 0.00 0.00 0.00 56 1016.3
20221004145930 67 80 0.0 1.0 0.00 0.00 0.00 55 1016.2
20221004145425 66 80 0.0 0.0 0.00 0.00 0.00 55 1016.2
20221004144909 65 80 0.0 0.0 0.00 0.00 0.00 57 1016.1
20221004144639 65 80 0.0 1.0 0.00 0.00 0.00 55 1016.1
20221004144139 65 80 0.0 2.0 0.00 0.00 0.00 58 1016.0
20221004143353 64 80 0.0 2.0 0.00 0.00 0.00 57 1016.1
20221004142854 64 80 0.0 3.0 0.00 0.00 0.00 58 1016.0
20221004142347 64 80 0.0 3.0 0.00 0.00 0.00 61 1015.9
20221004141838 63 80 0.0 3.0 0.00 0.00 0.00 61 1015.9
20221004141553 62 220 0.0 3.0 0.00 0.00 0.00 62 1015.7
20221004141055 62 80 1.0 5.0 0.00 0.00 0.00 63 1015.6
20221004140304 62 80 1.0 5.0 0.00 0.00 0.00 63 1015.6
20221004135804 61 80 0.0 3.0 0.00 0.00 0.00 62 1015.5
20221004135535 61 80 0.0 2.0 0.00 0.00 0.00 63 1015.5
20221004134749 61 80 0.0 2.0 0.00 0.00 0.00 62 1015.3
20221004134744 61 80 0.0 2.0 0.00 0.00 0.00 62 1015.2
20221004134734 61 80 0.0 2.0 0.00 0.00 0.00 61 1015.2
20221004134457 61 80 0.0 3.0 0.00 0.00 0.00 60 1015.3
20221004134236 61 80 0.0 3.0 0.00 0.00 0.00 60 1015.3
20221004132233 61 80 0.0 2.0 0.00 0.00 0.00 61 1015.1
20221004131727 61 206 0.0 0.0 0.00 0.00 0.00 61 1015.1
20221004131227 61 80 1.0 3.0 0.00 0.00 0.00 61 1015.1
20221004130722 61 206 1.0 4.0 0.00 0.00 0.00 61 1015.0
20221004130211 60 80 2.0 4.0 0.00 0.00 0.00 62 1015.0
20221004125712 60 80 1.0 3.0 0.00 0.00 0.00 62 1015.0
20221004125443 60 80 1.0 3.0 0.00 0.00 0.00 62 1015.0
20221004124711 60 80 0.0 2.0 0.00 0.00 0.00 61 1015.0